Time;durP1;ratioP1;P1;durP2;ratioP2;P2;SDS_P1;SDS_P2;PMS_P1;PMS_P2;Temp;Humidity;BMP_temperature;BMP_pressure;BME280_temperature;BME280_humidity;BME280_pressure;Samples;Min_cycle;Max_cycle;Signal;HPM_P1;HPM_P2
2023/10/04 00:00:59;;;;;;;5.22;2.92;;;13.60;99.90;;;;;;5019405;28;20203;-78
2023/10/04 00:03:27;;;;;;;4.72;2.67;;;13.60;99.90;;;;;;5025481;28;20199;-78
2023/10/04 00:05:55;;;;;;;5.85;2.90;;;13.60;99.90;;;;;;5009717;28;20207;-78
2023/10/04 00:08:23;;;;;;;6.32;2.80;;;13.60;99.90;;;;;;5031162;28;20217;-78
2023/10/04 00:10:52;;;;;;;6.93;2.30;;;13.60;99.90;;;;;;5012332;28;20208;-78
2023/10/04 00:13:19;;;;;;;6.82;2.85;;;13.50;99.90;;;;;;5016525;28;20218;-78
2023/10/04 00:15:47;;;;;;;7.70;2.50;;;13.50;99.90;;;;;;5019598;28;20195;-78
2023/10/04 00:18:15;;;;;;;5.85;3.17;;;13.50;99.90;;;;;;5018248;28;20218;-78
2023/10/04 00:20:43;;;;;;;7.25;3.00;;;13.50;99.90;;;;;;5017989;28;20209;-78
2023/10/04 00:23:13;;;;;;;5.45;2.58;;;13.50;99.90;;;;;;5023244;28;20191;-79
2023/10/04 00:25:40;;;;;;;6.10;2.50;;;13.40;99.90;;;;;;5023477;28;20215;-78
2023/10/04 00:28:09;;;;;;;7.38;2.30;;;13.40;99.90;;;;;;5022968;28;20681;-78
2023/10/04 00:30:37;;;;;;;6.78;2.33;;;13.50;99.90;;;;;;5035749;28;20204;-78
2023/10/04 00:33:08;;;;;;;7.18;2.42;;;13.50;99.90;;;;;;5027842;28;20223;-78
2023/10/04 00:35:40;;;;;;;6.13;2.55;;;13.50;99.90;;;;;;5041997;28;20195;-78
2023/10/04 00:38:09;;;;;;;3.95;2.30;;;13.50;99.90;;;;;;5026645;28;20574;-78
2023/10/04 00:40:37;;;;;;;8.80;2.53;;;13.50;99.90;;;;;;5010904;28;20202;-78
2023/10/04 00:43:08;;;;;;;4.95;2.58;;;13.60;99.90;;;;;;5019997;28;20202;-78
2023/10/04 00:45:36;;;;;;;4.97;2.63;;;13.40;99.90;;;;;;5017623;28;20203;-78
2023/10/04 00:48:10;;;;;;;6.43;2.55;;;13.50;99.90;;;;;;5016925;28;20244;-79
2023/10/04 00:50:39;;;;;;;5.95;2.45;;;13.40;99.90;;;;;;5012190;28;20211;-78
2023/10/04 00:53:08;;;;;;;7.45;2.67;;;13.40;99.90;;;;;;5010311;28;20228;-78
2023/10/04 00:55:39;;;;;;;5.93;2.38;;;13.40;99.90;;;;;;5016719;28;20568;-79
2023/10/04 00:58:07;;;;;;;7.15;2.42;;;13.40;99.90;;;;;;5006696;28;20224;-78
2023/10/04 01:00:38;;;;;;;7.50;2.45;;;13.50;99.90;;;;;;5019161;28;20199;-78
2023/10/04 01:03:07;;;;;;;5.43;2.45;;;13.40;99.90;;;;;;5015392;28;20203;-79
2023/10/04 01:05:38;;;;;;;9.38;2.67;;;13.40;99.90;;;;;;5012856;28;20210;-78
2023/10/04 01:08:07;;;;;;;4.88;2.50;;;13.30;99.90;;;;;;5011215;28;20215;-78
2023/10/04 01:10:35;;;;;;;7.32;2.60;;;13.30;99.90;;;;;;5034564;28;20191;-78
2023/10/04 01:13:05;;;;;;;5.65;2.60;;;13.30;99.90;;;;;;5010381;28;20223;-78
2023/10/04 01:15:33;;;;;;;9.02;2.45;;;13.20;99.90;;;;;;5021908;28;20568;-79
2023/10/04 01:18:04;;;;;;;6.30;2.45;;;13.20;99.90;;;;;;5013914;28;20232;-78
2023/10/04 01:20:33;;;;;;;8.25;2.47;;;13.30;99.90;;;;;;5037544;28;20190;-78
2023/10/04 01:23:05;;;;;;;8.57;3.15;;;13.30;99.90;;;;;;5034032;28;20209;-78
2023/10/04 01:25:34;;;;;;;5.18;2.25;;;13.30;99.90;;;;;;5008998;28;20195;-78
2023/10/04 01:28:03;;;;;;;4.50;2.30;;;13.30;99.90;;;;;;5005612;28;20216;-78
2023/10/04 01:30:31;;;;;;;6.43;3.00;;;13.20;99.90;;;;;;5008658;28;20195;-78
2023/10/04 01:33:03;;;;;;;6.55;2.65;;;13.30;99.90;;;;;;5007034;28;20230;-78
2023/10/04 01:35:33;;;;;;;10.15;2.97;;;13.20;99.90;;;;;;5018090;28;20199;-78
2023/10/04 01:38:04;;;;;;;7.35;2.33;;;13.30;99.90;;;;;;5007070;28;20224;-78
2023/10/04 01:40:32;;;;;;;5.07;2.25;;;13.20;99.90;;;;;;5026181;28;20199;-78
2023/10/04 01:43:00;;;;;;;6.93;2.50;;;13.20;99.90;;;;;;5014840;28;20207;-78
2023/10/04 01:45:27;;;;;;;6.82;2.42;;;13.20;99.90;;;;;;5011563;28;20198;-78
2023/10/04 01:47:55;;;;;;;6.03;2.50;;;13.20;99.90;;;;;;5016363;28;20218;-78
2023/10/04 01:50:24;;;;;;;5.68;3.08;;;13.20;99.90;;;;;;5007530;28;20203;-78
2023/10/04 01:52:52;;;;;;;4.70;2.65;;;13.20;99.90;;;;;;5005243;28;20582;-77
2023/10/04 01:55:21;;;;;;;8.13;2.83;;;13.20;99.90;;;;;;5009556;28;20684;-78
2023/10/04 01:57:49;;;;;;;5.28;2.40;;;13.20;99.90;;;;;;5012421;28;20784;-78
2023/10/04 02:00:17;;;;;;;6.88;2.90;;;13.10;99.90;;;;;;5013683;28;20210;-78
2023/10/04 02:02:46;;;;;;;5.03;2.42;;;13.20;99.90;;;;;;5003326;28;20200;-78
2023/10/04 02:05:19;;;;;;;5.93;2.28;;;13.30;99.90;;;;;;5006525;28;20199;-78
2023/10/04 02:07:46;;;;;;;6.75;2.22;;;13.10;99.90;;;;;;5015229;28;20226;-78
2023/10/04 02:10:17;;;;;;;4.93;2.35;;;13.20;99.90;;;;;;5029281;28;20210;-78
2023/10/04 02:12:46;;;;;;;7.32;2.72;;;13.20;99.90;;;;;;5008641;28;20192;-78
2023/10/04 02:15:16;;;;;;;5.32;2.33;;;13.20;99.90;;;;;;5007109;28;20697;-78
2023/10/04 02:17:45;;;;;;;8.40;2.45;;;13.20;99.90;;;;;;5026611;28;20580;-78
2023/10/04 02:20:19;;;;;;;6.97;2.45;;;13.20;99.90;;;;;;5013337;28;20207;-78
2023/10/04 02:22:47;;;;;;;5.22;2.30;;;13.20;99.90;;;;;;5009596;28;20195;-79
2023/10/04 02:25:15;;;;;;;5.68;2.50;;;13.30;99.90;;;;;;5030039;28;20202;-78
2023/10/04 02:27:44;;;;;;;6.65;2.53;;;13.20;99.90;;;;;;4998693;28;20223;-78
2023/10/04 02:30:21;;;;;;;7.22;2.30;;;13.20;99.90;;;;;;5010134;28;20203;-78
2023/10/04 02:32:50;;;;;;;8.98;3.60;;;13.20;99.90;;;;;;5017770;28;20565;-78
2023/10/04 02:35:26;;;;;;;5.60;2.20;;;13.10;99.90;;;;;;5029181;28;20200;-78
2023/10/04 02:37:59;;;;;;;5.75;2.35;;;13.20;99.90;;;;;;5007781;28;20226;-78
2023/10/04 02:40:32;;;;;;;6.70;2.75;;;13.20;99.90;;;;;;5008261;28;20205;-78
2023/10/04 02:43:00;;;;;;;6.95;2.47;;;13.20;99.90;;;;;;5011601;28;20202;-78
2023/10/04 02:45:29;;;;;;;4.90;2.63;;;13.10;99.90;;;;;;5013694;28;20203;-78
2023/10/04 02:47:57;;;;;;;3.40;2.40;;;13.20;99.90;;;;;;5015223;28;20688;-78
2023/10/04 02:50:25;;;;;;;5.43;2.65;;;13.20;99.90;;;;;;4997505;28;20215;-78
2023/10/04 02:52:53;;;;;;;6.90;2.70;;;13.20;99.90;;;;;;5008723;28;20295;-78
2023/10/04 02:55:23;;;;;;;5.90;2.58;;;13.20;99.90;;;;;;5013718;28;20584;-79
2023/10/04 02:57:52;;;;;;;5.95;2.15;;;13.20;99.90;;;;;;5010682;28;20230;-78
2023/10/04 03:00:21;;;;;;;7.38;2.80;;;13.20;99.90;;;;;;5010236;28;20206;-78
2023/10/04 03:02:55;;;;;;;5.00;2.42;;;13.20;99.90;;;;;;5025202;28;20218;-78
2023/10/04 03:05:28;;;;;;;6.00;2.58;;;13.20;99.90;;;;;;5011660;28;20210;-78
2023/10/04 03:07:57;;;;;;;7.43;2.80;;;13.20;99.90;;;;;;5013967;28;20219;-78
2023/10/04 03:10:25;;;;;;;6.00;2.85;;;13.30;99.90;;;;;;5011728;28;20207;-78
2023/10/04 03:12:59;;;;;;;8.07;3.05;;;13.20;99.90;;;;;;5011313;28;20696;-78
2023/10/04 03:15:29;;;;;;;8.65;2.60;;;13.30;99.90;;;;;;5007219;28;20239;-78
2023/10/04 03:17:59;;;;;;;5.78;2.78;;;13.10;99.90;;;;;;5004441;28;20226;-78
2023/10/04 03:20:30;;;;;;;7.78;2.95;;;13.30;99.90;;;;;;5007983;28;20214;-79
2023/10/04 03:23:00;;;;;;;5.88;3.10;;;13.20;99.90;;;;;;5007130;28;20203;-78
2023/10/04 03:25:31;;;;;;;10.15;2.88;;;13.40;99.90;;;;;;5032555;28;20191;-78
2023/10/04 03:27:58;;;;;;;8.75;3.13;;;13.40;99.90;;;;;;5005393;28;20223;-78
2023/10/04 03:30:27;;;;;;;5.13;2.70;;;13.40;99.90;;;;;;5006587;28;20202;-78
2023/10/04 03:32:56;;;;;;;10.05;2.88;;;13.40;99.90;;;;;;5009367;28;20207;-78
2023/10/04 03:35:29;;;;;;;9.65;2.85;;;13.40;99.90;;;;;;5009111;28;20226;-78
2023/10/04 03:38:01;;;;;;;7.00;2.65;;;13.40;99.90;;;;;;4999867;28;20696;-78
2023/10/04 03:40:35;;;;;;;5.38;2.83;;;13.40;99.90;;;;;;5013507;28;20202;-78
2023/10/04 03:43:08;;;;;;;10.32;3.03;;;13.30;99.90;;;;;;5003626;28;20197;-78
2023/10/04 03:45:40;;;;;;;9.65;3.53;;;13.30;99.90;;;;;;5011138;28;20195;-78
2023/10/04 03:48:13;;;;;;;6.88;2.88;;;13.30;99.90;;;;;;5007836;28;20704;-78
2023/10/04 03:50:45;;;;;;;6.28;2.88;;;13.20;99.90;;;;;;5028552;28;20561;-78
2023/10/04 03:53:13;;;;;;;5.35;2.70;;;13.20;99.90;;;;;;5003017;28;20234;-78
2023/10/04 03:55:42;;;;;;;14.45;3.00;;;13.30;99.90;;;;;;5011668;28;20223;-79
2023/10/04 03:58:11;;;;;;;8.93;3.25;;;13.30;99.90;;;;;;5016107;28;20225;-79
2023/10/04 04:00:40;;;;;;;7.22;2.88;;;13.20;99.90;;;;;;5017090;28;20211;-78
2023/10/04 04:03:09;;;;;;;8.32;3.53;;;13.20;99.90;;;;;;5030235;28;20548;-78
2023/10/04 04:06:31;;;;;;;9.40;3.05;;;13.20;99.90;;;;;;5013035;28;20195;-79
2023/10/04 04:09:04;;;;;;;4.80;2.50;;;13.30;99.90;;;;;;5035523;28;20219;-79
2023/10/04 04:11:31;;;;;;;6.47;3.05;;;13.30;99.90;;;;;;5010298;28;20196;-78
2023/10/04 04:13:59;;;;;;;8.45;3.28;;;13.20;99.90;;;;;;5014220;28;20221;-79
2023/10/04 04:16:26;;;;;;;10.23;3.22;;;13.20;99.90;;;;;;5017911;28;20203;-78
2023/10/04 04:18:55;;;;;;;10.30;3.17;;;13.20;99.90;;;;;;5010542;28;20233;-78
2023/10/04 04:21:25;;;;;;;6.50;3.10;;;13.20;99.90;;;;;;5018891;28;20209;-79
2023/10/04 04:23:52;;;;;;;9.75;3.47;;;13.30;99.90;;;;;;5017137;28;20210;-79
2023/10/04 04:26:26;;;;;;;6.47;3.42;;;13.20;99.90;;;;;;5015629;28;20195;-78
2023/10/04 04:28:55;;;;;;;5.50;2.70;;;13.10;99.90;;;;;;5009168;28;20215;-78
2023/10/04 04:31:22;;;;;;;10.10;3.22;;;13.10;99.90;;;;;;5015869;28;20558;-78
2023/10/04 04:33:50;;;;;;;5.47;2.80;;;13.00;99.90;;;;;;5011308;28;20210;-79
2023/10/04 04:36:26;;;;;;;12.30;3.00;;;13.10;99.90;;;;;;5015900;28;20195;-78
2023/10/04 04:38:55;;;;;;;10.50;3.30;;;13.10;99.90;;;;;;5013481;28;20234;-78
2023/10/04 04:41:26;;;;;;;7.78;2.97;;;13.10;99.90;;;;;;5015440;28;20261;-79
2023/10/04 04:43:55;;;;;;;6.97;3.33;;;13.10;99.90;;;;;;5017563;28;20195;-78
2023/10/04 04:46:23;;;;;;;12.40;3.65;;;13.20;99.90;;;;;;5016765;28;20692;-78
2023/10/04 04:48:54;;;;;;;8.13;3.13;;;13.00;99.90;;;;;;5017001;28;20211;-78
2023/10/04 04:51:22;;;;;;;11.70;3.75;;;13.10;99.90;;;;;;5010360;28;20211;-78
2023/10/04 04:53:53;;;;;;;8.07;2.47;;;13.10;99.90;;;;;;5008280;28;20202;-78
2023/10/04 04:56:26;;;;;;;11.07;2.92;;;13.00;99.90;;;;;;5011818;28;20226;-79
2023/10/04 04:59:07;;;;;;;11.75;3.22;;;13.00;99.90;;;;;;5017144;28;20241;-78
2023/10/04 05:01:38;;;;;;;4.65;2.83;;;13.00;99.90;;;;;;5008049;28;20198;-78
2023/10/04 05:04:07;;;;;;;7.57;2.65;;;13.00;99.90;;;;;;5013786;28;20203;-78
2023/10/04 05:06:36;;;;;;;7.57;3.42;;;13.00;99.90;;;;;;5027763;28;20206;-79
2023/10/04 05:09:04;;;;;;;12.65;2.97;;;13.00;99.90;;;;;;5012471;28;20219;-78
2023/10/04 05:11:36;;;;;;;8.60;3.35;;;13.00;99.90;;;;;;5033456;28;20206;-78
2023/10/04 05:14:05;;;;;;;9.90;3.08;;;13.00;99.90;;;;;;5021327;28;20206;-79
2023/10/04 05:16:32;;;;;;;8.30;3.70;;;12.90;99.90;;;;;;5005541;28;20192;-78
2023/10/04 05:19:00;;;;;;;5.18;3.13;;;12.90;99.90;;;;;;5015182;28;20230;-78
2023/10/04 05:21:27;;;;;;;9.25;3.30;;;12.90;99.90;;;;;;5022600;28;20206;-78
2023/10/04 05:23:56;;;;;;;6.57;3.00;;;12.90;99.90;;;;;;5013301;28;20314;-78
2023/10/04 05:26:23;;;;;;;6.50;3.00;;;12.90;99.90;;;;;;5007675;28;20638;-79
2023/10/04 05:28:56;;;;;;;7.80;3.15;;;12.90;99.90;;;;;;5035254;28;20219;-79
2023/10/04 05:31:24;;;;;;;10.85;3.38;;;12.90;99.90;;;;;;5007344;28;20700;-79
2023/10/04 05:33:51;;;;;;;7.45;2.95;;;12.90;99.90;;;;;;5012822;28;20222;-79
2023/10/04 05:36:18;;;;;;;7.75;3.33;;;12.90;99.90;;;;;;5012447;28;20222;-79
2023/10/04 05:38:46;;;;;;;9.55;3.60;;;12.90;99.90;;;;;;5023182;28;20724;-78
2023/10/04 05:41:14;;;;;;;7.55;3.53;;;12.90;99.90;;;;;;5012460;28;20203;-78
2023/10/04 05:43:43;;;;;;;7.78;3.30;;;12.90;99.90;;;;;;5005702;28;20288;-78
2023/10/04 05:46:13;;;;;;;6.38;3.67;;;12.90;99.90;;;;;;5027786;28;20206;-78
2023/10/04 05:48:40;;;;;;;13.80;3.92;;;12.80;99.90;;;;;;5008316;28;20701;-78
2023/10/04 05:51:08;;;;;;;8.88;3.80;;;12.80;99.90;;;;;;5015463;28;20199;-79
2023/10/04 05:53:37;;;;;;;10.18;3.50;;;12.80;99.90;;;;;;5025282;28;20203;-78
2023/10/04 05:56:05;;;;;;;8.82;3.33;;;12.80;99.90;;;;;;5024585;28;20219;-78
2023/10/04 05:58:34;;;;;;;9.95;3.63;;;12.70;99.90;;;;;;5006075;28;20222;-78
2023/10/04 06:01:02;;;;;;;10.48;3.83;;;12.70;99.90;;;;;;5010870;28;20206;-77
2023/10/04 06:03:39;;;;;;;11.77;3.83;;;12.80;99.90;;;;;;5009647;28;20210;-78
2023/10/04 06:06:07;;;;;;;8.23;3.85;;;12.80;99.90;;;;;;5010476;28;20201;-78
2023/10/04 06:08:34;;;;;;;8.00;4.10;;;12.80;99.90;;;;;;5026005;28;20314;-78
2023/10/04 06:11:02;;;;;;;9.27;3.72;;;12.70;99.90;;;;;;5004568;28;20208;-77
2023/10/04 06:13:29;;;;;;;11.88;3.60;;;12.70;99.90;;;;;;5013510;28;20207;-78
2023/10/04 06:15:56;;;;;;;5.63;3.00;;;12.70;99.90;;;;;;5028308;28;20226;-78
2023/10/04 06:18:28;;;;;;;11.18;3.45;;;12.60;99.90;;;;;;5007772;28;20227;-77
2023/10/04 06:20:57;;;;;;;6.53;3.58;;;12.70;99.90;;;;;;5000723;28;20657;-78
2023/10/04 06:23:36;;;;;;;14.65;3.83;;;12.70;99.90;;;;;;5007022;28;20214;-78
2023/10/04 06:26:05;;;;;;;13.07;3.72;;;12.80;99.90;;;;;;5004846;28;20661;-77
2023/10/04 06:28:32;;;;;;;9.00;4.20;;;12.70;99.90;;;;;;5011226;28;20599;-79
2023/10/04 06:30:59;;;;;;;10.03;3.37;;;12.70;99.90;;;;;;5003096;28;20203;-78
2023/10/04 06:33:27;;;;;;;8.20;3.50;;;12.70;99.90;;;;;;5022679;28;20214;-81
2023/10/04 06:35:55;;;;;;;12.87;3.70;;;12.90;99.90;;;;;;5010090;28;20226;-80
2023/10/04 06:38:24;;;;;;;8.48;3.10;;;12.90;99.90;;;;;;5027148;28;20580;-78
2023/10/04 06:40:52;;;;;;;8.70;3.20;;;12.80;99.90;;;;;;5006094;28;20653;-79
2023/10/04 06:43:19;;;;;;;8.27;3.45;;;12.80;99.90;;;;;;5008285;28;20199;-78
2023/10/04 06:45:47;;;;;;;10.10;3.60;;;12.80;99.90;;;;;;5024789;28;20191;-78
2023/10/04 06:48:14;;;;;;;10.80;3.67;;;12.80;99.90;;;;;;5009038;28;20222;-77
2023/10/04 06:50:44;;;;;;;8.70;3.85;;;13.00;99.90;;;;;;4999695;28;20207;-78
2023/10/04 06:53:12;;;;;;;9.38;3.25;;;13.00;99.90;;;;;;4999362;28;20203;-77
2023/10/04 06:55:42;;;;;;;8.63;3.75;;;12.90;99.90;;;;;;5013970;28;20207;-77
2023/10/04 06:58:10;;;;;;;11.02;4.18;;;13.10;99.90;;;;;;5026839;28;20223;-75
2023/10/04 07:00:40;;;;;;;14.15;4.03;;;13.20;99.90;;;;;;5003953;28;20661;-76
2023/10/04 07:03:08;;;;;;;7.32;3.40;;;13.10;99.90;;;;;;5003792;28;20207;-77
2023/10/04 07:05:37;;;;;;;10.90;3.67;;;13.20;99.90;;;;;;5013265;28;20199;-76
2023/10/04 07:08:06;;;;;;;10.73;3.38;;;13.10;99.90;;;;;;5013455;28;20226;-76
2023/10/04 07:10:36;;;;;;;8.27;3.40;;;13.30;99.90;;;;;;5012331;28;20214;-77
2023/10/04 07:13:06;;;;;;;11.68;3.67;;;13.30;99.90;;;;;;5005199;28;20642;-77
2023/10/04 07:15:35;;;;;;;10.93;4.10;;;13.20;99.90;;;;;;5003188;28;20707;-77
2023/10/04 07:18:06;;;;;;;10.95;3.38;;;13.20;99.90;;;;;;5004756;28;20223;-77
2023/10/04 07:20:34;;;;;;;8.07;3.47;;;13.20;99.90;;;;;;5013837;28;20213;-77
2023/10/04 07:23:05;;;;;;;8.63;3.88;;;13.30;99.90;;;;;;5020859;28;20644;-77
2023/10/04 07:25:35;;;;;;;10.75;4.03;;;13.30;99.90;;;;;;5008495;28;20203;-76
2023/10/04 07:28:08;;;;;;;10.52;4.03;;;13.30;99.90;;;;;;5013740;28;20230;-77
2023/10/04 07:30:36;;;;;;;10.45;4.03;;;13.40;99.90;;;;;;5029439;28;21728;-77
2023/10/04 07:33:04;;;;;;;12.63;4.43;;;13.40;99.90;;;;;;5009341;28;20214;-77
2023/10/04 07:35:33;;;;;;;14.60;4.28;;;13.40;99.90;;;;;;5029818;28;20202;-76
2023/10/04 07:38:04;;;;;;;9.70;3.90;;;13.40;99.90;;;;;;5009304;28;20246;-76
2023/10/04 07:40:32;;;;;;;9.55;3.72;;;13.50;99.90;;;;;;5021442;28;20200;-76
2023/10/04 07:43:01;;;;;;;11.13;4.50;;;13.50;99.90;;;;;;5003606;28;20199;-77
2023/10/04 07:45:30;;;;;;;12.95;4.47;;;13.40;99.90;;;;;;5013232;28;20210;-76
2023/10/04 07:47:58;;;;;;;11.05;3.63;;;13.40;99.90;;;;;;5009142;28;20219;-76
2023/10/04 07:50:26;;;;;;;9.70;3.78;;;13.50;99.90;;;;;;5008652;28;20303;-76
2023/10/04 07:52:55;;;;;;;14.50;4.57;;;13.70;99.90;;;;;;4996631;28;20195;-76
2023/10/04 07:55:25;;;;;;;9.68;4.32;;;13.70;99.90;;;;;;5009938;28;20202;-76
2023/10/04 07:57:54;;;;;;;14.18;4.57;;;13.70;99.90;;;;;;5001157;28;20685;-76
2023/10/04 08:00:22;;;;;;;10.20;3.47;;;13.60;99.90;;;;;;5021995;28;20198;-76
2023/10/04 08:02:51;;;;;;;9.48;3.95;;;13.70;99.90;;;;;;4998231;28;20199;-76
2023/10/04 08:05:20;;;;;;;7.82;3.88;;;13.70;99.90;;;;;;5000756;28;20199;-76
2023/10/04 08:07:49;;;;;;;9.82;4.22;;;13.70;99.90;;;;;;5003511;28;20588;-76
2023/10/04 08:10:16;;;;;;;10.30;4.00;;;13.70;99.90;;;;;;5003374;28;20199;-75
2023/10/04 08:12:45;;;;;;;13.10;4.38;;;13.90;99.90;;;;;;5014645;28;20187;-76
2023/10/04 08:15:14;;;;;;;9.02;3.75;;;14.20;99.90;;;;;;5004641;28;20692;-76
2023/10/04 08:17:43;;;;;;;8.43;3.65;;;14.20;99.90;;;;;;5009377;28;20237;-77
2023/10/04 08:20:13;;;;;;;7.22;3.38;;;14.10;99.90;;;;;;5006213;28;20202;-78
2023/10/04 08:22:41;;;;;;;7.88;4.35;;;14.30;99.90;;;;;;5008613;28;20202;-76
2023/10/04 08:25:11;;;;;;;10.88;3.85;;;14.30;99.90;;;;;;5012158;28;20191;-75
2023/10/04 08:27:39;;;;;;;10.23;4.45;;;14.30;99.90;;;;;;5026495;28;20191;-75
2023/10/04 08:30:07;;;;;;;10.57;4.40;;;14.30;99.90;;;;;;5026298;28;20545;-76
2023/10/04 08:32:35;;;;;;;10.82;4.25;;;14.30;99.90;;;;;;5009260;28;20210;-75
2023/10/04 08:35:03;;;;;;;9.77;4.57;;;14.30;99.90;;;;;;5006173;28;20207;-75
2023/10/04 08:37:32;;;;;;;13.07;4.30;;;14.30;99.90;;;;;;5003506;28;20219;-75
2023/10/04 08:39:59;;;;;;;10.80;4.20;;;14.40;99.90;;;;;;5009484;28;20191;-74
2023/10/04 08:42:28;;;;;;;7.75;4.10;;;14.30;99.90;;;;;;4996103;28;20239;-74
2023/10/04 08:44:55;;;;;;;8.23;3.80;;;14.40;99.90;;;;;;5015682;28;20206;-75
2023/10/04 08:47:24;;;;;;;11.63;4.07;;;14.60;99.90;;;;;;5014302;28;20675;-76
2023/10/04 08:49:54;;;;;;;10.55;4.00;;;14.60;99.90;;;;;;5022824;28;20196;-76
2023/10/04 08:52:35;;;;;;;9.45;3.72;;;14.70;99.90;;;;;;5007076;28;20203;-75
2023/10/04 08:55:13;;;;;;;10.77;3.75;;;14.80;99.90;;;;;;5015220;28;20558;-75
2023/10/04 08:57:41;;;;;;;11.77;4.88;;;14.80;99.90;;;;;;5007225;28;20211;-75
2023/10/04 09:00:13;;;;;;;14.90;4.50;;;14.90;99.90;;;;;;5025386;28;20267;-75
2023/10/04 09:02:53;;;;;;;12.20;5.13;;;14.70;99.90;;;;;;5009299;28;20199;-76
2023/10/04 09:05:23;;;;;;;10.75;3.75;;;14.90;99.90;;;;;;5015732;28;20198;-76
2023/10/04 09:07:51;;;;;;;10.65;4.00;;;15.00;99.90;;;;;;5008414;28;20218;-76
2023/10/04 09:10:21;;;;;;;13.95;4.38;;;14.80;99.90;;;;;;5014969;28;20195;-76
2023/10/04 09:12:49;;;;;;;8.38;3.58;;;15.00;99.90;;;;;;5024302;28;20206;-76
2023/10/04 09:15:17;;;;;;;9.80;3.70;;;15.00;99.90;;;;;;5009487;28;20199;-76
2023/10/04 09:17:47;;;;;;;9.88;3.55;;;15.10;99.90;;;;;;5027317;28;20226;-76
2023/10/04 09:20:16;;;;;;;11.65;3.70;;;15.20;99.90;;;;;;5010501;28;20211;-76
2023/10/04 09:22:44;;;;;;;10.43;3.97;;;15.20;99.90;;;;;;5019306;28;20566;-76
2023/10/04 09:25:12;;;;;;;6.85;4.00;;;15.50;99.90;;;;;;5022852;28;20191;-76
2023/10/04 09:27:41;;;;;;;12.00;4.35;;;15.50;99.90;;;;;;5028317;28;20207;-76
2023/10/04 09:30:54;;;;;;;;;;;;;;;;;;;;;
2023/10/04 09:33:28;;;;;;;8.88;4.35;;;15.60;99.90;;;;;;5000530;28;20546;-76
2023/10/04 09:35:56;;;;;;;11.88;4.28;;;15.80;99.90;;;;;;5028835;28;20227;-76
2023/10/04 09:38:25;;;;;;;14.30;5.47;;;15.60;99.90;;;;;;5015287;28;20219;-76
2023/10/04 09:40:59;;;;;;;15.25;5.82;;;15.60;99.90;;;;;;5009949;28;20203;-76
2023/10/04 09:43:36;;;;;;;11.35;5.05;;;15.40;99.90;;;;;;5009380;28;20198;-76
2023/10/04 09:46:06;;;;;;;10.45;4.90;;;15.60;99.90;;;;;;5012496;28;20202;-77
2023/10/04 09:48:37;;;;;;;11.52;5.03;;;15.90;99.90;;;;;;5010870;28;20219;-77
2023/10/04 09:51:06;;;;;;;10.35;5.72;;;15.80;99.90;;;;;;5007412;28;20203;-77
2023/10/04 09:53:38;;;;;;;9.50;4.95;;;15.90;99.90;;;;;;5005603;28;20218;-77
2023/10/04 09:56:06;;;;;;;12.57;5.63;;;16.00;99.90;;;;;;5024736;28;20551;-76
2023/10/04 09:58:39;;;;;;;13.70;5.70;;;15.90;99.90;;;;;;5006841;28;20592;-76
2023/10/04 10:01:09;;;;;;;11.30;5.70;;;15.90;99.90;;;;;;5014920;28;20226;-77
2023/10/04 10:03:41;;;;;;;12.15;5.35;;;15.90;99.90;;;;;;5005967;28;20210;-76
2023/10/04 10:06:11;;;;;;;11.10;5.60;;;15.90;99.90;;;;;;5007956;28;20203;-76
2023/10/04 10:08:45;;;;;;;10.90;5.13;;;15.90;99.90;;;;;;5010893;28;20224;-76
2023/10/04 10:11:13;;;;;;;9.60;5.25;;;15.90;99.90;;;;;;5019802;28;20202;-76
2023/10/04 10:13:43;;;;;;;15.05;4.90;;;16.00;99.90;;;;;;5004143;28;20211;-76
2023/10/04 10:16:12;;;;;;;9.35;4.47;;;16.10;99.90;;;;;;5018697;28;20195;-76
2023/10/04 10:18:40;;;;;;;14.02;4.82;;;16.20;99.90;;;;;;5010002;28;20234;-76
2023/10/04 10:21:08;;;;;;;10.23;4.85;;;16.30;99.90;;;;;;5014614;28;20638;-77
2023/10/04 10:23:57;;;;;;;17.38;4.47;;;16.20;99.90;;;;;;5006082;28;20685;-76
2023/10/04 10:26:26;;;;;;;13.10;4.00;;;16.00;99.90;;;;;;5013964;28;20199;-76
2023/10/04 10:29:03;;;;;;;13.55;4.35;;;15.90;99.90;;;;;;5011099;28;20218;-76
2023/10/04 10:31:31;;;;;;;11.65;4.22;;;16.00;99.90;;;;;;5001229;28;20573;-76
2023/10/04 10:33:58;;;;;;;10.45;4.47;;;16.00;99.90;;;;;;5004389;28;20195;-76
2023/10/04 10:36:27;;;;;;;11.30;4.57;;;16.10;99.90;;;;;;5011861;28;20211;-77
2023/10/04 10:38:55;;;;;;;8.77;4.47;;;16.30;99.90;;;;;;5029618;28;20235;-77
2023/10/04 10:42:04;;;;;;;8.77;4.47;;;16.20;99.90;;;;;;5010868;28;20200;-77
2023/10/04 10:44:37;;;;;;;10.02;3.85;;;16.10;99.90;;;;;;5009289;28;20674;-76
2023/10/04 10:47:07;;;;;;;9.50;3.85;;;16.20;99.90;;;;;;5009827;28;20195;-76
2023/10/04 10:49:44;;;;;;;7.90;3.97;;;16.20;99.90;;;;;;5012420;28;20227;-76
2023/10/04 10:52:23;;;;;;;8.60;4.15;;;16.10;99.90;;;;;;5028197;28;20195;-76
2023/10/04 10:54:51;;;;;;;10.98;5.03;;;16.20;99.90;;;;;;5004389;28;20195;-76
2023/10/04 10:57:20;;;;;;;8.25;4.45;;;16.10;99.90;;;;;;5006912;28;20211;-76
2023/10/04 10:59:51;;;;;;;10.60;4.50;;;16.40;99.90;;;;;;5009439;28;20226;-76
2023/10/04 11:02:18;;;;;;;7.90;4.30;;;16.50;99.90;;;;;;5020282;28;20195;-76
2023/10/04 11:04:45;;;;;;;9.93;4.13;;;16.50;99.90;;;;;;5002276;28;20578;-76
2023/10/04 11:07:13;;;;;;;8.35;3.92;;;16.50;99.90;;;;;;5009343;28;20199;-77
2023/10/04 11:09:43;;;;;;;9.48;4.03;;;16.70;99.90;;;;;;5010184;28;20238;-77
2023/10/04 11:12:12;;;;;;;6.82;3.90;;;16.70;99.90;;;;;;5011300;28;20205;-77
2023/10/04 11:14:40;;;;;;;10.68;4.15;;;16.70;99.90;;;;;;5005204;28;20211;-77
2023/10/04 11:17:10;;;;;;;10.05;3.83;;;16.70;99.90;;;;;;5012030;28;20203;-77
2023/10/04 11:19:37;;;;;;;9.43;3.60;;;16.90;99.90;;;;;;5009369;28;20584;-76
2023/10/04 11:26:12;;;;;;;6.72;3.28;;;17.00;99.90;;;;;;5036985;28;20166;-77
2023/10/04 11:28:41;;;;;;;6.97;3.50;;;17.10;99.90;;;;;;5028591;28;20219;-78
2023/10/04 11:31:08;;;;;;;6.43;3.60;;;17.10;99.90;;;;;;5032632;28;20210;-77
2023/10/04 11:33:50;;;;;;;7.55;3.22;;;17.20;99.90;;;;;;5017444;28;20214;-76
2023/10/04 11:36:22;;;;;;;6.95;3.20;;;17.00;99.90;;;;;;5002350;28;20199;-80
2023/10/04 11:38:51;;;;;;;6.97;2.90;;;17.30;99.90;;;;;;5013501;28;20227;-77
2023/10/04 11:41:19;;;;;;;7.53;3.63;;;17.20;99.90;;;;;;5005659;28;20210;-77
2023/10/04 11:43:47;;;;;;;6.60;3.88;;;17.50;99.90;;;;;;5029696;28;20201;-76
2023/10/04 11:49:34;;;;;;;11.52;3.90;;;17.80;99.90;;;;;;5011544;28;20694;-76
2023/10/04 11:52:04;;;;;;;7.20;3.25;;;18.00;99.90;;;;;;5008832;28;20195;-76
2023/10/04 11:54:39;;;;;;;8.43;3.50;;;18.00;99.90;;;;;;5007029;28;20218;-76
2023/10/04 11:57:08;;;;;;;5.25;2.90;;;17.70;99.90;;;;;;5012379;28;20221;-76
2023/10/04 11:59:36;;;;;;;7.65;3.22;;;17.60;99.90;;;;;;5019824;28;20228;-76
2023/10/04 12:02:04;;;;;;;8.15;3.33;;;17.50;99.90;;;;;;5012838;28;20206;-76
2023/10/04 12:04:34;;;;;;;7.40;2.97;;;17.60;99.90;;;;;;5014396;28;20574;-76
2023/10/04 12:07:03;;;;;;;6.93;3.17;;;17.70;99.90;;;;;;5029508;28;20207;-76
2023/10/04 12:09:34;;;;;;;5.88;3.20;;;17.70;99.90;;;;;;5013170;28;20219;-76
2023/10/04 12:12:03;;;;;;;5.53;2.88;;;17.70;99.90;;;;;;5013686;28;20199;-76
2023/10/04 12:14:32;;;;;;;8.75;3.25;;;17.70;99.90;;;;;;5029091;28;20203;-76
2023/10/04 12:17:03;;;;;;;5.95;3.35;;;17.50;99.90;;;;;;5003871;28;20561;-76
2023/10/04 12:19:32;;;;;;;7.10;3.45;;;17.60;99.90;;;;;;5019847;28;20226;-76
2023/10/04 12:22:02;;;;;;;4.40;3.05;;;17.60;99.90;;;;;;5017304;28;20203;-76
2023/10/04 12:24:30;;;;;;;10.57;3.70;;;17.50;99.90;;;;;;5016892;28;20206;-76
2023/10/04 12:26:58;;;;;;;9.52;2.83;;;17.70;99.90;;;;;;5016850;28;20206;-76
2023/10/04 12:29:28;;;;;;;8.52;3.60;;;17.50;99.90;;;;;;5013578;28;20219;-76
2023/10/04 12:31:56;;;;;;;5.93;2.90;;;17.50;99.90;;;;;;5033568;28;20318;-76
2023/10/04 12:34:24;;;;;;;5.88;3.33;;;17.60;99.90;;;;;;5034491;28;20195;-76
2023/10/04 12:36:53;;;;;;;6.40;3.13;;;17.60;99.90;;;;;;5016446;28;20210;-76
2023/10/04 12:39:21;;;;;;;8.13;3.40;;;17.70;99.90;;;;;;5033649;28;20219;-76
2023/10/04 12:41:49;;;;;;;7.50;3.70;;;17.80;99.90;;;;;;5008456;28;20535;-76
2023/10/04 12:44:17;;;;;;;7.22;3.35;;;17.70;99.90;;;;;;5016067;28;20679;-76
2023/10/04 12:46:45;;;;;;;7.70;3.13;;;17.60;99.90;;;;;;5033095;28;20210;-76
2023/10/04 12:49:13;;;;;;;7.15;3.47;;;17.50;99.90;;;;;;5016846;28;20562;-76
2023/10/04 12:51:40;;;;;;;6.25;3.50;;;17.60;99.90;;;;;;5015871;28;20199;-76
2023/10/04 12:54:09;;;;;;;6.00;3.75;;;17.60;99.90;;;;;;5016165;28;20199;-76
2023/10/04 12:56:38;;;;;;;11.45;4.65;;;17.40;99.90;;;;;;5016449;28;20210;-76
2023/10/04 12:59:06;;;;;;;7.65;3.67;;;17.50;99.90;;;;;;5034272;28;20572;-76
2023/10/04 13:01:34;;;;;;;7.45;3.40;;;17.40;99.90;;;;;;5016518;28;20202;-76
2023/10/04 13:04:02;;;;;;;6.32;3.72;;;17.30;99.90;;;;;;5016454;28;20196;-76
2023/10/04 13:06:30;;;;;;;6.35;3.78;;;17.50;99.90;;;;;;5016353;28;20203;-76